Time;durP1;ratioP1;P1;durP2;ratioP2;P2;SDS_P1;SDS_P2;PMS_P1;PMS_P2;Temp;Humidity;BMP_temperature;BMP_pressure;BME280_temperature;BME280_humidity;BME280_pressure;Samples;Min_cycle;Max_cycle;Signal;HPM_P1;HPM_P2
2023/07/05 00:01:57;;;;;;;4.03;0.80;;;;;;;;;;5034021;28;20740;-83
2023/07/05 00:04:23;;;;;;;4.10;0.77;;;;;;;;;;5034165;28;20420;-83
2023/07/05 00:06:52;;;;;;;1.73;0.50;;;;;;;;;;5032733;28;20416;-83
2023/07/05 00:09:18;;;;;;;1.93;0.47;;;;;;;;;;5034156;28;20509;-83
2023/07/05 00:11:44;;;;;;;1.43;0.47;;;;;;;;;;5033939;28;20564;-82
2023/07/05 00:14:10;;;;;;;4.00;0.90;;;;;;;;;;5034066;28;20548;-82
2023/07/05 00:16:36;;;;;;;2.80;0.60;;;;;;;;;;5033913;28;20421;-81
2023/07/05 00:19:02;;;;;;;2.90;0.80;;;;;;;;;;5034078;28;20527;-82
2023/07/05 00:21:28;;;;;;;2.13;1.57;;;;;;;;;;5033994;28;20414;-82
2023/07/05 00:23:54;;;;;;;2.00;1.10;;;;;;;;;;5019280;28;20474;-82
2023/07/05 00:26:20;;;;;;;2.87;0.87;;;;;;;;;;5013600;28;20939;-82
2023/07/05 00:28:46;;;;;;;4.53;1.47;;;;;;;;;;5014051;28;20417;-82
2023/07/05 00:31:12;;;;;;;3.30;1.40;;;;;;;;;;5013749;28;20422;-82
2023/07/05 00:33:38;;;;;;;1.73;0.83;;;;;;;;;;5013710;28;20525;-82
2023/07/05 00:36:04;;;;;;;5.03;1.40;;;;;;;;;;5014145;28;20490;-82
2023/07/05 00:38:30;;;;;;;3.10;1.03;;;;;;;;;;5013808;28;20180;-82
2023/07/05 00:40:56;;;;;;;3.70;1.20;;;;;;;;;;5014116;28;20417;-81
2023/07/05 00:43:22;;;;;;;3.03;1.13;;;;;;;;;;5013797;28;20987;-82
2023/07/05 00:45:53;;;;;;;5.00;1.13;;;;;;;;;;5013962;28;20414;-82
2023/07/05 00:48:21;;;;;;;4.87;2.00;;;;;;;;;;5012720;28;20434;-81
2023/07/05 00:50:48;;;;;;;6.13;1.27;;;;;;;;;;5013943;28;20503;-82
2023/07/05 00:53:14;;;;;;;4.00;1.50;;;;;;;;;;5013519;28;20425;-81
2023/07/05 00:55:42;;;;;;;2.90;1.07;;;;;;;;;;5013845;28;20414;-82
2023/07/05 00:58:08;;;;;;;2.83;1.27;;;;;;;;;;5013814;28;20419;-82
2023/07/05 01:00:35;;;;;;;2.80;1.80;;;;;;;;;;5013773;28;20453;-82
2023/07/05 01:03:02;;;;;;;3.17;1.40;;;;;;;;;;5012349;28;20473;-82
2023/07/05 01:05:28;;;;;;;9.03;1.67;;;;;;;;;;5012452;28;20426;-82
2023/07/05 01:07:54;;;;;;;4.03;1.63;;;;;;;;;;5013289;28;20836;-81
2023/07/05 01:10:21;;;;;;;3.20;2.23;;;;;;;;;;5013569;28;20441;-82
2023/07/05 01:13:10;;;;;;;4.50;2.30;;;;;;;;;;5013512;28;20177;-81
2023/07/05 01:15:51;;;;;;;8.40;2.00;;;;;;;;;;5013538;28;20815;-81
2023/07/05 01:18:16;;;;;;;4.00;1.83;;;;;;;;;;5013466;28;20413;-81
2023/07/05 01:20:42;;;;;;;5.23;1.63;;;;;;;;;;5013422;28;20411;-81
2023/07/05 01:23:20;;;;;;;4.40;2.60;;;;;;;;;;5011660;28;20214;-81
2023/07/05 01:26:15;;;;;;;4.00;2.83;;;;;;;;;;5013448;28;20213;-82
2023/07/05 01:28:41;;;;;;;8.67;3.03;;;;;;;;;;5004750;28;20807;-83
2023/07/05 01:31:36;;;;;;;8.70;3.37;;;;;;;;;;5013332;28;20464;-83
2023/07/05 01:34:14;;;;;;;4.50;2.33;;;;;;;;;;5004789;28;20509;-82
2023/07/05 01:36:41;;;;;;;8.80;2.87;;;;;;;;;;5012166;28;20477;-83
2023/07/05 01:39:06;;;;;;;4.93;2.63;;;;;;;;;;5013089;28;20414;-83
2023/07/05 01:41:32;;;;;;;4.20;2.40;;;;;;;;;;5011977;28;20419;-83
2023/07/05 01:43:58;;;;;;;5.20;2.63;;;;;;;;;;5013162;28;20524;-82
2023/07/05 01:46:28;;;;;;;9.80;3.40;;;;;;;;;;5011917;28;20411;-82
2023/07/05 01:48:59;;;;;;;8.70;2.67;;;;;;;;;;5011874;28;20430;-83
2023/07/05 01:51:26;;;;;;;5.93;2.70;;;;;;;;;;5011609;28;20509;-82
2023/07/05 01:53:59;;;;;;;6.57;3.27;;;;;;;;;;5013094;28;20419;-82
2023/07/05 01:56:30;;;;;;;5.00;2.90;;;;;;;;;;5011909;28;20803;-82
2023/07/05 01:58:58;;;;;;;4.50;2.70;;;;;;;;;;5013105;28;20464;-82
2023/07/05 02:01:24;;;;;;;4.47;2.70;;;;;;;;;;5013055;28;20428;-81
2023/07/05 02:03:52;;;;;;;8.03;3.07;;;;;;;;;;5013021;28;20477;-82
2023/07/05 02:06:18;;;;;;;9.63;2.60;;;;;;;;;;5012659;28;20416;-81
2023/07/05 02:08:45;;;;;;;4.93;3.30;;;;;;;;;;5013010;28;20438;-82
2023/07/05 02:11:11;;;;;;;5.83;2.80;;;;;;;;;;5012931;28;20405;-81
2023/07/05 02:13:37;;;;;;;6.50;2.73;;;;;;;;;;5012905;28;20932;-82
2023/07/05 02:16:03;;;;;;;8.53;3.20;;;;;;;;;;5011747;28;20207;-82
2023/07/05 02:18:29;;;;;;;5.40;2.70;;;;;;;;;;5012957;28;20501;-82
2023/07/05 02:20:55;;;;;;;4.60;3.20;;;;;;;;;;5012840;28;20413;-83
2023/07/05 02:23:22;;;;;;;6.20;3.70;;;;;;;;;;5012383;28;20523;-83
2023/07/05 02:25:48;;;;;;;5.87;3.37;;;;;;;;;;5012853;28;20420;-82
2023/07/05 02:28:14;;;;;;;7.73;2.80;;;;;;;;;;5012795;28;20507;-81
2023/07/05 02:30:40;;;;;;;7.40;3.20;;;;;;;;;;5012738;28;20423;-81
2023/07/05 02:33:06;;;;;;;6.27;3.10;;;;;;;;;;5012648;28;20538;-81
2023/07/05 02:35:36;;;;;;;7.53;3.17;;;;;;;;;;5012743;28;20448;-81
2023/07/05 02:38:02;;;;;;;6.60;3.10;;;;;;;;;;5012381;28;20428;-81
2023/07/05 02:40:28;;;;;;;7.97;3.90;;;;;;;;;;5012744;28;20438;-81
2023/07/05 02:42:54;;;;;;;11.17;5.30;;;;;;;;;;5012630;28;20469;-81
2023/07/05 02:45:20;;;;;;;6.07;3.40;;;;;;;;;;5012697;28;20987;-81
2023/07/05 02:47:46;;;;;;;7.90;3.90;;;;;;;;;;5013856;28;20406;-81
2023/07/05 02:50:14;;;;;;;6.63;3.20;;;;;;;;;;5016184;28;20901;-81
2023/07/05 02:52:40;;;;;;;9.07;3.33;;;;;;;;;;5015848;28;20769;-80
2023/07/05 02:55:06;;;;;;;7.83;3.80;;;;;;;;;;5016164;28;20408;-82
2023/07/05 02:57:32;;;;;;;5.80;3.00;;;;;;;;;;5016137;28;20405;-80
2023/07/05 02:59:58;;;;;;;6.67;3.37;;;;;;;;;;5016000;28;20408;-81
2023/07/05 03:02:24;;;;;;;13.53;3.57;;;;;;;;;;5015974;28;20467;-80
2023/07/05 03:04:50;;;;;;;9.37;3.00;;;;;;;;;;5015939;28;20236;-80
2023/07/05 03:07:16;;;;;;;4.70;2.80;;;;;;;;;;5015545;28;20231;-81
2023/07/05 03:09:48;;;;;;;3.93;2.77;;;;;;;;;;5015880;28;20226;-81
2023/07/05 03:12:14;;;;;;;9.07;3.87;;;;;;;;;;5014564;28;20177;-81
2023/07/05 03:14:40;;;;;;;5.63;3.40;;;;;;;;;;5014410;28;20432;-81
2023/07/05 03:17:05;;;;;;;5.00;2.50;;;;;;;;;;5015660;28;20177;-81
2023/07/05 03:19:31;;;;;;;6.60;2.77;;;;;;;;;;5015727;28;20519;-81
2023/07/05 03:21:57;;;;;;;6.75;3.20;;;;;;;;;;5015278;28;20914;-81
2023/07/05 03:24:23;;;;;;;3.80;3.00;;;;;;;;;;5015620;28;20550;-81
2023/07/05 03:26:51;;;;;;;9.27;5.13;;;;;;;;;;5015619;28;20254;-80
2023/07/05 03:29:17;;;;;;;7.70;3.70;;;;;;;;;;5015448;28;20425;-81
2023/07/05 03:31:43;;;;;;;6.90;3.43;;;;;;;;;;5015222;28;20467;-81
2023/07/05 03:34:09;;;;;;;5.57;2.33;;;;;;;;;;5015469;28;20183;-81
2023/07/05 03:36:35;;;;;;;6.60;3.20;;;;;;;;;;5014995;28;20415;-82
2023/07/05 03:39:01;;;;;;;3.60;2.50;;;;;;;;;;5015316;28;20418;-84
2023/07/05 03:41:27;;;;;;;5.70;3.30;;;;;;;;;;5015322;28;20448;-80
2023/07/05 03:44:00;;;;;;;6.43;2.80;;;;;;;;;;5015140;28;20470;-82
2023/07/05 03:46:27;;;;;;;4.17;2.10;;;;;;;;;;5015221;28;20506;-81
2023/07/05 03:48:53;;;;;;;6.70;2.83;;;;;;;;;;5013783;28;20429;-82
2023/07/05 03:51:20;;;;;;;6.47;2.60;;;;;;;;;;5014789;28;20914;-81
2023/07/05 03:53:53;;;;;;;5.47;2.93;;;;;;;;;;5014946;28;20510;-82
2023/07/05 03:56:19;;;;;;;2.63;2.10;;;;;;;;;;5015041;28;20446;-83
2023/07/05 03:58:45;;;;;;;3.80;2.47;;;;;;;;;;5014437;28;20422;-81
2023/07/05 04:01:14;;;;;;;4.10;2.20;;;;;;;;;;5014649;28;20413;-82
2023/07/05 04:03:40;;;;;;;3.33;2.60;;;;;;;;;;5014816;28;20472;-81
2023/07/05 04:06:06;;;;;;;4.63;2.60;;;;;;;;;;5013238;28;20422;-82
2023/07/05 04:08:32;;;;;;;7.07;3.47;;;;;;;;;;5014801;28;20436;-81
2023/07/05 04:10:59;;;;;;;4.50;2.63;;;;;;;;;;5014415;28;20506;-82
2023/07/05 04:13:25;;;;;;;3.40;2.73;;;;;;;;;;5014560;28;20828;-82
2023/07/05 04:16:10;;;;;;;5.13;3.20;;;;;;;;;;5014603;28;20415;-80
2023/07/05 04:18:36;;;;;;;8.67;3.40;;;;;;;;;;5014603;28;20416;-80
2023/07/05 04:21:02;;;;;;;6.10;2.60;;;;;;;;;;5014098;28;20418;-81
2023/07/05 04:23:28;;;;;;;12.77;3.97;;;;;;;;;;5014295;28;20818;-80
2023/07/05 04:26:04;;;;;;;8.27;3.83;;;;;;;;;;5014354;28;20410;-81
2023/07/05 04:28:31;;;;;;;7.07;3.97;;;;;;;;;;5014320;28;20948;-84
2023/07/05 04:30:57;;;;;;;5.70;3.40;;;;;;;;;;5014252;28;20906;-81
2023/07/05 04:33:23;;;;;;;7.83;2.90;;;;;;;;;;5014034;28;20465;-82
2023/07/05 04:35:50;;;;;;;6.20;4.00;;;;;;;;;;5014211;28;20496;-81
2023/07/05 04:38:16;;;;;;;6.23;4.40;;;;;;;;;;5014134;28;20897;-81
2023/07/05 04:40:42;;;;;;;7.87;4.13;;;;;;;;;;5014102;28;20410;-83
2023/07/05 04:43:08;;;;;;;4.63;2.80;;;;;;;;;;5014003;28;20557;-81
2023/07/05 04:45:34;;;;;;;5.73;3.00;;;;;;;;;;5014039;28;20503;-83
2023/07/05 04:48:00;;;;;;;7.63;3.90;;;;;;;;;;5012642;28;20469;-84
2023/07/05 04:50:26;;;;;;;7.43;4.73;;;;;;;;;;5013953;28;20174;-81
2023/07/05 04:52:52;;;;;;;7.60;4.70;;;;;;;;;;5013500;28;20174;-81
2023/07/05 04:55:17;;;;;;;8.43;4.50;;;;;;;;;;5013837;28;20836;-81
2023/07/05 04:57:43;;;;;;;7.50;3.67;;;;;;;;;;5012570;28;20178;-82
2023/07/05 05:00:11;;;;;;;6.23;4.30;;;;;;;;;;5013786;28;20427;-82
2023/07/05 05:02:37;;;;;;;8.23;4.70;;;;;;;;;;5013147;28;20481;-84
2023/07/05 05:05:03;;;;;;;8.65;5.60;;;;;;;;;;5013293;28;20427;-81
2023/07/05 05:07:29;;;;;;;5.73;4.80;;;;;;;;;;5013282;28;20247;-84
2023/07/05 05:09:56;;;;;;;7.50;4.30;;;;;;;;;;5013671;28;20418;-83
2023/07/05 05:12:22;;;;;;;8.33;3.60;;;;;;;;;;5012331;28;20215;-83
2023/07/05 05:14:48;;;;;;;9.63;5.20;;;;;;;;;;5012355;28;20428;-81
2023/07/05 05:17:14;;;;;;;6.20;5.00;;;;;;;;;;5013306;28;20418;-82
2023/07/05 05:19:40;;;;;;;7.23;4.07;;;;;;;;;;5013589;28;20443;-79
2023/07/05 05:22:06;;;;;;;10.70;5.30;;;;;;;;;;5013021;28;20250;-80
2023/07/05 05:24:32;;;;;;;8.67;5.67;;;;;;;;;;5013452;28;20612;-79
2023/07/05 05:26:58;;;;;;;9.43;5.37;;;;;;;;;;5013293;28;20758;-79
2023/07/05 05:29:24;;;;;;;10.60;4.83;;;;;;;;;;5013395;28;20426;-81
2023/07/05 05:31:50;;;;;;;11.03;4.70;;;;;;;;;;5013255;28;20564;-80
2023/07/05 05:34:16;;;;;;;9.60;5.73;;;;;;;;;;5013320;28;20259;-79
2023/07/05 05:36:42;;;;;;;9.80;6.00;;;;;;;;;;5012924;28;20170;-81
2023/07/05 05:39:08;;;;;;;6.17;4.90;;;;;;;;;;5010921;28;20868;-79
2023/07/05 05:41:34;;;;;;;6.20;5.37;;;;;;;;;;5011389;28;20263;-80
2023/07/05 05:44:00;;;;;;;9.43;4.73;;;;;;;;;;5012714;28;20558;-81
2023/07/05 05:46:26;;;;;;;6.97;5.00;;;;;;;;;;5013237;28;20628;-80
2023/07/05 05:48:52;;;;;;;7.27;6.57;;;;;;;;;;5011756;28;20418;-80
2023/07/05 05:51:18;;;;;;;10.30;6.47;;;;;;;;;;5012188;28;20484;-81
2023/07/05 05:53:44;;;;;;;8.70;6.63;;;;;;;;;;5011943;28;20184;-80
2023/07/05 05:56:10;;;;;;;10.30;6.30;;;;;;;;;;5013089;28;20421;-79
2023/07/05 05:58:36;;;;;;;9.77;7.07;;;;;;;;;;5013135;28;20422;-78
2023/07/05 06:01:03;;;;;;;14.50;6.53;;;;;;;;;;5013031;28;20419;-80
2023/07/05 06:03:29;;;;;;;13.43;6.63;;;;;;;;;;5012908;28;21013;-81
2023/07/05 06:05:55;;;;;;;9.23;6.40;;;;;;;;;;5011482;28;20433;-78
2023/07/05 06:08:21;;;;;;;11.13;6.23;;;;;;;;;;5013043;28;20420;-79
2023/07/05 06:10:54;;;;;;;10.43;7.40;;;;;;;;;;5013118;28;20907;-80
2023/07/05 06:13:20;;;;;;;12.83;6.27;;;;;;;;;;5013003;28;20781;-78
2023/07/05 06:15:46;;;;;;;9.47;7.00;;;;;;;;;;5012842;28;20419;-78
2023/07/05 06:18:12;;;;;;;12.43;7.70;;;;;;;;;;5012907;28;20177;-81
2023/07/05 06:20:37;;;;;;;9.60;6.13;;;;;;;;;;5012515;28;20418;-80
2023/07/05 06:23:03;;;;;;;8.60;7.10;;;;;;;;;;5014605;28;20477;-82
2023/07/05 06:25:30;;;;;;;11.00;7.20;;;;;;;;;;5015433;28;20187;-80
2023/07/05 06:27:56;;;;;;;9.67;6.17;;;;;;;;;;5016640;28;20751;-81
2023/07/05 06:30:25;;;;;;;12.87;7.93;;;;;;;;;;5016580;28;20415;-80
2023/07/05 06:32:51;;;;;;;9.47;5.90;;;;;;;;;;5016331;28;20479;-80
2023/07/05 06:35:17;;;;;;;8.90;6.80;;;;;;;;;;5016424;28;20759;-80
2023/07/05 06:37:43;;;;;;;8.70;6.33;;;;;;;;;;5016106;28;20543;-80
2023/07/05 06:40:09;;;;;;;9.83;6.90;;;;;;;;;;5016430;28;20409;-80
2023/07/05 06:42:35;;;;;;;9.00;7.17;;;;;;;;;;5016217;28;20226;-81
2023/07/05 06:45:01;;;;;;;8.13;5.83;;;;;;;;;;5016257;28;20922;-83
2023/07/05 06:47:27;;;;;;;9.97;5.50;;;;;;;;;;5016341;28;20410;-79
2023/07/05 06:49:53;;;;;;;10.40;6.93;;;;;;;;;;5016269;28;20462;-79
2023/07/05 06:52:19;;;;;;;8.10;5.67;;;;;;;;;;5015885;28;20438;-79
2023/07/05 06:54:45;;;;;;;10.23;6.03;;;;;;;;;;5016185;28;20718;-79
2023/07/05 06:57:10;;;;;;;11.03;7.43;;;;;;;;;;5016080;28;20505;-78
2023/07/05 06:59:36;;;;;;;11.27;6.20;;;;;;;;;;5016042;28;20419;-79
2023/07/05 07:02:02;;;;;;;9.40;7.03;;;;;;;;;;5015939;28;20834;-80
2023/07/05 07:04:29;;;;;;;9.23;6.80;;;;;;;;;;5015896;28;20473;-79
2023/07/05 07:06:55;;;;;;;10.63;7.10;;;;;;;;;;5015618;28;20450;-78
2023/07/05 07:09:21;;;;;;;9.70;6.43;;;;;;;;;;5015865;28;20451;-82
2023/07/05 07:11:47;;;;;;;13.20;7.20;;;;;;;;;;5015904;28;20897;-77
2023/07/05 07:14:13;;;;;;;11.83;8.00;;;;;;;;;;5015817;28;20407;-78
2023/07/05 07:16:39;;;;;;;9.27;6.20;;;;;;;;;;5015792;28;20403;-77
2023/07/05 07:19:05;;;;;;;10.50;6.83;;;;;;;;;;5015820;28;20404;-77
2023/07/05 07:21:31;;;;;;;9.70;7.37;;;;;;;;;;5015295;28;20820;-77
2023/07/05 07:23:57;;;;;;;10.73;7.23;;;;;;;;;;5015474;28;20592;-79
2023/07/05 07:26:24;;;;;;;12.00;8.10;;;;;;;;;;5015537;28;20413;-78
2023/07/05 07:28:51;;;;;;;10.20;8.57;;;;;;;;;;5015786;28;20511;-86
2023/07/05 07:31:19;;;;;;;11.47;6.77;;;;;;;;;;5015512;28;20499;-85
2023/07/05 07:33:45;;;;;;;12.77;6.43;;;;;;;;;;5014667;28;20968;-80
2023/07/05 07:36:12;;;;;;;13.53;8.30;;;;;;;;;;5013530;28;20931;-80
2023/07/05 07:38:39;;;;;;;7.33;6.00;;;;;;;;;;5015441;28;20420;-83
2023/07/05 07:41:11;;;;;;;11.33;6.93;;;;;;;;;;5015232;28;20411;-81
2023/07/05 07:43:37;;;;;;;14.53;8.00;;;;;;;;;;5015253;28;20592;-79
2023/07/05 07:46:07;;;;;;;11.97;7.80;;;;;;;;;;5015224;28;20416;-78
2023/07/05 07:48:33;;;;;;;12.67;7.30;;;;;;;;;;5015197;28;20260;-79
2023/07/05 07:50:58;;;;;;;11.80;8.00;;;;;;;;;;5014807;28;20438;-80
2023/07/05 07:53:24;;;;;;;10.63;7.87;;;;;;;;;;5015040;28;20254;-77
2023/07/05 07:55:50;;;;;;;9.90;6.90;;;;;;;;;;5014540;28;20182;-79
2023/07/05 07:58:16;;;;;;;10.33;8.00;;;;;;;;;;5014716;28;20429;-79
2023/07/05 08:00:42;;;;;;;9.53;7.97;;;;;;;;;;5014793;28;20630;-80
2023/07/05 08:03:08;;;;;;;10.87;6.47;;;;;;;;;;5014752;28;20479;-79
2023/07/05 08:05:34;;;;;;;12.47;7.47;;;;;;;;;;5014388;28;20172;-82
2023/07/05 08:08:00;;;;;;;10.50;6.53;;;;;;;;;;5014686;28;20504;-79
2023/07/05 08:10:28;;;;;;;12.17;8.37;;;;;;;;;;5014615;28;20406;-77
2023/07/05 08:12:53;;;;;;;9.67;6.60;;;;;;;;;;5014458;28;20421;-77
2023/07/05 08:15:19;;;;;;;12.27;7.10;;;;;;;;;;5014612;28;20424;-77
2023/07/05 08:17:45;;;;;;;12.07;6.63;;;;;;;;;;5014672;28;20183;-78
2023/07/05 08:20:13;;;;;;;10.53;7.60;;;;;;;;;;5014196;28;20180;-77
2023/07/05 08:22:39;;;;;;;10.70;6.93;;;;;;;;;;5014129;28;20200;-80
2023/07/05 08:25:05;;;;;;;12.00;6.80;;;;;;;;;;5014296;28;20415;-76
2023/07/05 08:27:30;;;;;;;12.50;6.80;;;;;;;;;;5014099;28;20931;-77
2023/07/05 08:29:56;;;;;;;11.37;7.27;;;;;;;;;;5013584;28;20446;-77
2023/07/05 08:32:22;;;;;;;8.17;6.70;;;;;;;;;;5013699;28;20454;-78
2023/07/05 08:34:49;;;;;;;9.60;7.27;;;;;;;;;;5013381;28;20422;-79
2023/07/05 08:37:15;;;;;;;11.20;7.40;;;;;;;;;;5013638;28;20417;-77
2023/07/05 08:39:41;;;;;;;8.80;7.23;;;;;;;;;;5014209;28;20419;-79
2023/07/05 08:42:14;;;;;;;7.17;6.27;;;;;;;;;;5014079;28;20414;-80
2023/07/05 08:44:47;;;;;;;8.67;6.60;;;;;;;;;;5014058;28;20188;-80
2023/07/05 08:47:20;;;;;;;10.60;7.10;;;;;;;;;;5013891;28;20412;-82
2023/07/05 08:50:01;;;;;;;10.40;6.67;;;;;;;;;;5012751;28;20480;-79
2023/07/05 08:52:39;;;;;;;10.03;7.07;;;;;;;;;;5013730;28;20413;-78
2023/07/05 08:55:08;;;;;;;5.47;4.70;;;;;;;;;;5013928;28;20432;-79
2023/07/05 08:57:40;;;;;;;7.80;5.20;;;;;;;;;;5013851;28;20424;-79
2023/07/05 09:00:11;;;;;;;6.30;4.07;;;;;;;;;;5013821;28;20801;-79
2023/07/05 09:02:37;;;;;;;6.97;4.70;;;;;;;;;;5013713;28;20473;-79
2023/07/05 09:05:04;;;;;;;6.90;3.90;;;;;;;;;;5013553;28;20424;-79
2023/07/05 09:07:39;;;;;;;5.23;3.60;;;;;;;;;;5013612;28;20409;-79
2023/07/05 09:10:12;;;;;;;6.30;3.10;;;;;;;;;;5013452;28;20449;-79
2023/07/05 09:12:39;;;;;;;5.10;2.80;;;;;;;;;;5013624;28;20403;-84
2023/07/05 09:15:25;;;;;;;5.50;3.20;;;;;;;;;;5013624;28;20445;-82
2023/07/05 09:18:00;;;;;;;5.30;1.87;;;;;;;;;;5013607;28;20402;-80
2023/07/05 09:20:29;;;;;;;1.77;0.80;;;;;;;;;;5013218;28;20784;-83
2023/07/05 09:22:55;;;;;;;1.63;0.90;;;;;;;;;;5013421;28;20559;-84
2023/07/05 09:25:22;;;;;;;5.30;0.87;;;;;;;;;;5013685;28;20431;-86
2023/07/05 09:27:50;;;;;;;1.30;0.87;;;;;;;;;;5013540;28;20404;-81
2023/07/05 09:30:24;;;;;;;1.73;0.93;;;;;;;;;;5013491;28;20424;-85
2023/07/05 09:32:55;;;;;;;2.70;1.40;;;;;;;;;;5013565;28;20467;-84
2023/07/05 09:35:23;;;;;;;2.63;0.53;;;;;;;;;;5013439;28;20882;-83
2023/07/05 09:38:01;;;;;;;2.50;1.30;;;;;;;;;;5013524;28;20501;-83
2023/07/05 09:40:32;;;;;;;1.90;0.77;;;;;;;;;;5013484;28;20410;-87
2023/07/05 09:43:00;;;;;;;2.77;1.23;;;;;;;;;;5008776;28;20988;-84
2023/07/05 09:45:29;;;;;;;2.30;1.30;;;;;;;;;;4999880;28;20446;-81
2023/07/05 09:48:03;;;;;;;2.10;0.83;;;;;;;;;;5005286;28;20434;-85
2023/07/05 09:50:30;;;;;;;2.27;0.90;;;;;;;;;;4992929;28;20414;-81
2023/07/05 09:53:10;;;;;;;4.07;1.53;;;;;;;;;;4993279;28;20498;-82
2023/07/05 09:55:57;;;;;;;2.87;1.57;;;;;;;;;;4993287;28;20425;-83
2023/07/05 09:58:24;;;;;;;2.33;0.87;;;;;;;;;;4995505;28;20446;-82
2023/07/05 10:00:51;;;;;;;1.90;0.90;;;;;;;;;;4996914;28;20477;-82
2023/07/05 10:03:22;;;;;;;2.57;1.17;;;;;;;;;;4996733;28;20479;-82
2023/07/05 10:05:55;;;;;;;2.03;1.23;;;;;;;;;;4996525;28;20402;-81
2023/07/05 10:08:22;;;;;;;2.37;0.70;;;;;;;;;;4996806;28;20434;-84
2023/07/05 10:10:49;;;;;;;2.13;0.80;;;;;;;;;;4997063;28;20418;-83
2023/07/05 10:13:19;;;;;;;3.07;1.37;;;;;;;;;;4997190;28;20499;-82
2023/07/05 10:15:49;;;;;;;3.30;1.40;;;;;;;;;;4996589;28;20492;-82
2023/07/05 10:18:28;;;;;;;2.53;0.70;;;;;;;;;;4997127;28;20419;-82
2023/07/05 10:20:55;;;;;;;4.60;1.10;;;;;;;;;;4996570;28;20416;-83
2023/07/05 10:23:22;;;;;;;1.67;0.80;;;;;;;;;;4996951;28;20512;-85
2023/07/05 10:25:48;;;;;;;2.23;0.83;;;;;;;;;;4996915;28;20420;-83
2023/07/05 10:28:20;;;;;;;2.10;0.50;;;;;;;;;;5011949;28;20423;-83
2023/07/05 10:30:49;;;;;;;2.17;0.70;;;;;;;;;;4996901;28;20425;-82
2023/07/05 10:33:16;;;;;;;2.17;0.73;;;;;;;;;;4996500;28;20473;-84
2023/07/05 10:35:53;;;;;;;2.20;1.00;;;;;;;;;;5011303;28;20422;-80
2023/07/05 10:38:29;;;;;;;2.10;0.93;;;;;;;;;;4996783;28;20465;-83
2023/07/05 10:40:59;;;;;;;2.50;0.90;;;;;;;;;;4996517;28;20411;-82
2023/07/05 10:43:25;;;;;;;2.33;0.83;;;;;;;;;;5000067;28;20486;-81
2023/07/05 10:45:51;;;;;;;1.90;0.80;;;;;;;;;;5003412;28;20934;-82
2023/07/05 10:48:36;;;;;;;1.67;0.50;;;;;;;;;;4996573;28;20426;-81
2023/07/05 10:51:03;;;;;;;3.57;1.33;;;;;;;;;;4996228;28;20895;-81
2023/07/05 10:53:30;;;;;;;6.13;1.97;;;;;;;;;;4996593;28;20408;-81
2023/07/05 10:56:03;;;;;;;3.20;0.93;;;;;;;;;;4996182;28;20897;-81
2023/07/05 10:58:35;;;;;;;2.47;1.07;;;;;;;;;;4996526;28;20477;-80
2023/07/05 11:01:12;;;;;;;2.33;0.70;;;;;;;;;;4996670;28;20518;-80
2023/07/05 11:03:48;;;;;;;2.10;1.10;;;;;;;;;;4996235;28;20470;-80
2023/07/05 11:06:17;;;;;;;1.57;0.50;;;;;;;;;;4995879;28;20930;-81
2023/07/05 11:08:45;;;;;;;4.77;0.80;;;;;;;;;;4996176;28;20410;-83
2023/07/05 11:11:21;;;;;;;1.63;0.40;;;;;;;;;;4996205;28;20450;-80
2023/07/05 11:13:48;;;;;;;3.60;0.80;;;;;;;;;;4996171;28;20411;-80
2023/07/05 11:16:33;;;;;;;6.33;1.07;;;;;;;;;;4996044;28;20417;-83
2023/07/05 11:19:12;;;;;;;1.80;0.77;;;;;;;;;;4996063;28;21048;-81
2023/07/05 11:21:38;;;;;;;1.80;0.53;;;;;;;;;;4995776;28;20406;-81
2023/07/05 11:24:05;;;;;;;2.10;0.37;;;;;;;;;;4995937;28;20533;-81
2023/07/05 11:26:36;;;;;;;1.53;0.60;;;;;;;;;;4995899;28;20551;-81
2023/07/05 11:29:22;;;;;;;2.70;0.60;;;;;;;;;;4995957;28;20421;-80
2023/07/05 11:31:48;;;;;;;2.20;0.70;;;;;;;;;;4995441;28;20410;-80
2023/07/05 11:34:29;;;;;;;2.53;0.70;;;;;;;;;;4995776;28;20422;-82
2023/07/05 11:37:01;;;;;;;2.37;0.33;;;;;;;;;;4999914;28;20182;-80
2023/07/05 11:39:40;;;;;;;2.87;0.57;;;;;;;;;;5013875;28;20430;-86
2023/07/05 11:42:15;;;;;;;1.87;0.30;;;;;;;;;;5014829;28;20945;-82
2023/07/05 11:44:42;;;;;;;1.30;0.30;;;;;;;;;;5003975;28;20448;-88
2023/07/05 11:47:10;;;;;;;1.47;0.40;;;;;;;;;;5015006;28;20414;-79
2023/07/05 11:49:40;;;;;;;4.20;0.77;;;;;;;;;;5014868;28;20412;-79
2023/07/05 11:52:16;;;;;;;2.10;1.03;;;;;;;;;;5014898;28;20398;-83
2023/07/05 11:54:48;;;;;;;1.67;0.37;;;;;;;;;;5014952;28;20761;-83
2023/07/05 11:57:14;;;;;;;0.83;0.20;;;;;;;;;;5014433;28;20431;-81
2023/07/05 11:59:44;;;;;;;4.30;0.57;;;;;;;;;;5014820;28;20782;-84
2023/07/05 12:02:35;;;;;;;1.77;0.40;;;;;;;;;;5014806;28;20496;-78
2023/07/05 12:05:03;;;;;;;1.50;0.30;;;;;;;;;;5013927;28;20930;-77
2023/07/05 12:07:30;;;;;;;4.23;0.30;;;;;;;;;;5014648;28;20441;-83
2023/07/05 12:09:56;;;;;;;3.27;0.47;;;;;;;;;;5014877;28;20469;-86
2023/07/05 12:12:22;;;;;;;3.23;0.57;;;;;;;;;;5014948;28;20433;-86
2023/07/05 12:14:49;;;;;;;1.03;0.20;;;;;;;;;;5013744;28;20453;-83
2023/07/05 12:17:18;;;;;;;3.40;0.70;;;;;;;;;;5014962;28;20424;-81
2023/07/05 12:19:44;;;;;;;0.80;0.20;;;;;;;;;;5014967;28;20445;-83
2023/07/05 12:22:25;;;;;;;2.10;0.83;;;;;;;;;;5014229;28;20821;-81
2023/07/05 12:24:52;;;;;;;2.30;0.80;;;;;;;;;;5014685;28;20433;-86
2023/07/05 12:27:23;;;;;;;1.90;0.40;;;;;;;;;;5014346;28;20891;-84
2023/07/05 12:29:53;;;;;;;1.53;0.37;;;;;;;;;;5014109;28;20422;-79
2023/07/05 12:32:21;;;;;;;1.00;0.40;;;;;;;;;;5013502;28;20460;-82
2023/07/05 12:35:10;;;;;;;2.13;0.60;;;;;;;;;;5013322;28;20421;-82
2023/07/05 12:37:36;;;;;;;2.73;0.90;;;;;;;;;;5024281;28;20409;-86
2023/07/05 12:40:21;;;;;;;3.13;0.40;;;;;;;;;;5013640;28;20453;-80
2023/07/05 12:42:51;;;;;;;9.90;1.47;;;;;;;;;;5011113;28;20522;-78
2023/07/05 12:45:18;;;;;;;2.20;0.50;;;;;;;;;;5002777;28;20521;-84
2023/07/05 12:47:47;;;;;;;3.00;1.13;;;;;;;;;;4994598;28;20985;-88
2023/07/05 12:50:17;;;;;;;1.63;0.40;;;;;;;;;;4994158;28;20418;-88
2023/07/05 12:52:43;;;;;;;5.07;0.80;;;;;;;;;;4994470;28;20557;-83
2023/07/05 12:55:25;;;;;;;2.60;0.40;;;;;;;;;;4994203;28;20505;-85
2023/07/05 12:57:52;;;;;;;5.80;0.93;;;;;;;;;;4994315;28;20775;-85
2023/07/05 13:00:19;;;;;;;3.23;0.63;;;;;;;;;;5009526;28;20476;-89
2023/07/05 13:02:45;;;;;;;3.30;0.40;;;;;;;;;;5008578;28;20937;-83
2023/07/05 13:05:11;;;;;;;1.03;0.30;;;;;;;;;;5013138;28;20552;-82
2023/07/05 13:07:39;;;;;;;2.30;0.50;;;;;;;;;;5013173;28;20407;-81
2023/07/05 13:10:06;;;;;;;2.00;0.47;;;;;;;;;;5013448;28;20441;-81
2023/07/05 13:12:47;;;;;;;6.10;1.40;;;;;;;;;;5012067;28;20422;-85
2023/07/05 13:15:14;;;;;;;1.13;0.40;;;;;;;;;;5013354;28;20425;-77
2023/07/05 13:17:43;;;;;;;6.60;0.80;;;;;;;;;;5012961;28;20416;-77
2023/07/05 13:20:19;;;;;;;0.70;0.40;;;;;;;;;;5012617;28;20423;-78
2023/07/05 13:22:48;;;;;;;4.10;0.97;;;;;;;;;;5011157;28;20916;-81
2023/07/05 13:25:27;;;;;;;1.77;0.70;;;;;;;;;;5013508;28;20447;-79
2023/07/05 13:27:54;;;;;;;1.57;0.43;;;;;;;;;;5012970;28;20825;-76
2023/07/05 13:30:21;;;;;;;3.50;1.10;;;;;;;;;;5008456;28;20444;-77
2023/07/05 13:32:50;;;;;;;1.50;0.43;;;;;;;;;;5007010;28;20887;-84
2023/07/05 13:35:16;;;;;;;3.23;0.97;;;;;;;;;;4992683;28;20423;-84
2023/07/05 13:37:42;;;;;;;3.57;0.80;;;;;;;;;;5008444;28;20513;-85
2023/07/05 13:40:14;;;;;;;1.60;0.70;;;;;;;;;;5008475;28;20486;-88
2023/07/05 13:42:41;;;;;;;1.90;0.50;;;;;;;;;;4995569;28;20575;-82
2023/07/05 13:45:14;;;;;;;3.13;0.63;;;;;;;;;;5001851;28;20417;-81
2023/07/05 13:47:40;;;;;;;1.83;0.57;;;;;;;;;;5014583;28;20478;-87
2023/07/05 13:50:07;;;;;;;1.20;0.43;;;;;;;;;;5017439;28;20501;-87
2023/07/05 13:52:33;;;;;;;1.73;0.80;;;;;;;;;;5012568;28;20532;-82
2023/07/05 13:54:59;;;;;;;2.07;0.33;;;;;;;;;;5012326;28;20764;-84
2023/07/05 13:57:24;;;;;;;1.57;0.50;;;;;;;;;;5012195;28;20446;-81
2023/07/05 13:59:50;;;;;;;1.33;0.37;;;;;;;;;;5012467;28;20422;-85
2023/07/05 14:02:36;;;;;;;3.03;0.47;;;;;;;;;;5012198;28;20178;-78
2023/07/05 14:05:03;;;;;;;3.53;1.20;;;;;;;;;;5012206;28;20214;-78
2023/07/05 14:07:29;;;;;;;2.20;0.80;;;;;;;;;;5012710;28;20788;-83
2023/07/05 14:09:55;;;;;;;1.80;0.50;;;;;;;;;;5011242;28;20426;-82
2023/07/05 14:12:22;;;;;;;1.80;0.50;;;;;;;;;;5012468;28;20179;-84
2023/07/05 14:14:48;;;;;;;1.70;0.50;;;;;;;;;;5012399;28;20632;-86
2023/07/05 14:17:17;;;;;;;3.13;0.50;;;;;;;;;;5012250;28;20417;-85
2023/07/05 14:19:44;;;;;;;2.67;0.60;;;;;;;;;;5011987;28;20429;-85
2023/07/05 14:22:21;;;;;;;1.47;0.57;;;;;;;;;;5012468;28;20424;-86
2023/07/05 14:24:48;;;;;;;2.87;0.67;;;;;;;;;;5012285;28;20422;-82
2023/07/05 14:27:18;;;;;;;1.67;0.50;;;;;;;;;;5017535;28;20408;-82
2023/07/05 14:29:44;;;;;;;2.97;0.73;;;;;;;;;;5015531;28;20424;-82
2023/07/05 14:32:14;;;;;;;3.37;0.60;;;;;;;;;;5011070;28;20470;-79
2023/07/05 14:34:40;;;;;;;2.30;0.33;;;;;;;;;;5010295;28;20433;-84
2023/07/05 14:37:06;;;;;;;4.10;0.60;;;;;;;;;;5012204;28;20428;-81
2023/07/05 14:39:32;;;;;;;3.93;0.57;;;;;;;;;;5012482;28;20424;-82
2023/07/05 14:41:58;;;;;;;4.83;0.43;;;;;;;;;;5012425;28;20429;-84
2023/07/05 14:44:24;;;;;;;4.23;0.60;;;;;;;;;;5007226;28;20491;-81
2023/07/05 14:46:50;;;;;;;1.40;0.40;;;;;;;;;;5011502;28;20421;-86
2023/07/05 14:49:36;;;;;;;1.13;0.30;;;;;;;;;;5003978;28;20645;-80